Time;durP1;ratioP1;P1;durP2;ratioP2;P2;SDS_P1;SDS_P2;PMS_P1;PMS_P2;Temp;Humidity;BMP_temperature;BMP_pressure;BME280_temperature;BME280_humidity;BME280_pressure;Samples;Min_cycle;Max_cycle;Signal;HPM_P1;HPM_P2
2022/04/05 00:00:14;;;;;;;9.27;1.00;;;7.00;99.90;;;;;;5095177;28;20044;-73
2022/04/05 00:02:40;;;;;;;7.72;0.90;;;6.90;99.90;;;;;;5080134;28;20407;-73
2022/04/05 00:05:08;;;;;;;7.50;1.20;;;6.90;99.90;;;;;;5113443;28;20040;-75
2022/04/05 00:07:33;;;;;;;11.23;1.33;;;6.90;99.90;;;;;;5128296;28;20043;-73
2022/04/05 00:10:00;;;;;;;7.38;0.80;;;6.90;99.90;;;;;;5131340;28;20043;-75
2022/04/05 00:12:26;;;;;;;5.72;1.48;;;6.90;99.90;;;;;;5132065;28;20403;-74
2022/04/05 00:14:58;;;;;;;7.38;0.77;;;6.80;99.90;;;;;;5132031;27;20078;-73
2022/04/05 00:17:24;;;;;;;12.23;1.00;;;6.80;99.90;;;;;;5130984;28;20465;-74
2022/04/05 00:19:50;;;;;;;9.23;0.90;;;6.80;99.90;;;;;;5131593;28;20055;-73
2022/04/05 00:22:28;;;;;;;7.88;0.70;;;6.80;99.90;;;;;;5116147;28;20099;-75
2022/04/05 00:24:55;;;;;;;8.98;0.90;;;6.80;99.90;;;;;;5130051;28;20043;-75
2022/04/05 00:27:22;;;;;;;7.80;0.65;;;6.80;99.90;;;;;;5123230;28;20052;-74
2022/04/05 00:29:48;;;;;;;6.50;0.73;;;6.70;99.90;;;;;;5102120;28;20496;-73
2022/04/05 00:32:13;;;;;;;10.43;1.00;;;6.70;99.90;;;;;;5111807;28;20043;-76
2022/04/05 00:34:40;;;;;;;8.10;0.85;;;6.70;99.90;;;;;;5104660;28;20144;-75
2022/04/05 00:37:06;;;;;;;5.32;1.08;;;6.70;99.90;;;;;;5131632;27;20100;-75
2022/04/05 00:39:32;;;;;;;11.82;1.20;;;6.80;99.90;;;;;;5130906;27;20075;-74
2022/04/05 00:41:57;;;;;;;7.45;1.67;;;6.70;99.90;;;;;;5135409;27;20043;-78
2022/04/05 00:44:24;;;;;;;10.57;1.40;;;6.70;99.90;;;;;;5134433;27;20054;-75
2022/04/05 00:46:52;;;;;;;8.37;1.30;;;6.70;99.90;;;;;;5118186;27;20047;-74
2022/04/05 00:49:31;;;;;;;12.25;1.67;;;6.70;99.90;;;;;;5116937;27;20394;-75
2022/04/05 00:52:00;;;;;;;5.43;0.93;;;6.70;99.90;;;;;;5134782;27;20047;-75
2022/04/05 00:54:28;;;;;;;5.03;1.17;;;6.70;99.90;;;;;;5116924;27;20035;-75
2022/04/05 00:56:58;;;;;;;14.85;1.58;;;6.60;99.90;;;;;;5134780;27;20139;-74
2022/04/05 00:59:28;;;;;;;12.05;1.95;;;6.70;99.90;;;;;;5134720;27;20047;-75
2022/04/05 01:01:55;;;;;;;11.45;1.50;;;6.70;99.90;;;;;;5137136;27;20043;-75
2022/04/05 01:04:21;;;;;;;;;;;6.60;99.90;;;;;;5113452;28;20120;-74
2022/04/05 01:06:49;;;;;;;8.25;1.30;;;6.70;99.90;;;;;;5080442;28;19923;-74
2022/04/05 01:09:15;;;;;;;14.75;1.45;;;6.70;99.90;;;;;;5095706;28;20055;-75
2022/04/05 01:11:40;;;;;;;10.57;1.40;;;6.70;99.90;;;;;;5080586;28;20048;-74
2022/04/05 01:14:06;;;;;;;6.43;1.33;;;6.60;99.90;;;;;;5125987;27;20047;-74
2022/04/05 01:16:33;;;;;;;7.78;1.88;;;6.60;99.90;;;;;;5116680;27;20103;-74
2022/04/05 01:18:59;;;;;;;6.35;1.10;;;6.60;99.90;;;;;;5135497;27;20142;-77
2022/04/05 01:21:28;;;;;;;8.77;1.20;;;6.60;99.90;;;;;;5136699;27;20043;-74
2022/04/05 01:24:21;;;;;;;8.68;1.77;;;6.60;99.90;;;;;;5139669;27;20050;-77
2022/04/05 01:26:57;;;;;;;11.23;2.00;;;6.60;99.90;;;;;;5136400;27;20111;-75
2022/04/05 01:29:25;;;;;;;8.27;0.93;;;6.60;99.90;;;;;;5134045;27;20051;-74
2022/04/05 01:31:55;;;;;;;9.15;1.02;;;6.60;99.90;;;;;;5135277;27;20043;-73
2022/04/05 01:34:23;;;;;;;7.82;0.70;;;6.50;99.90;;;;;;5132808;27;20031;-76
2022/04/05 01:36:51;;;;;;;10.13;0.90;;;6.50;99.90;;;;;;5134924;27;20376;-74
2022/04/05 01:39:20;;;;;;;10.90;0.75;;;6.50;99.90;;;;;;5113911;27;20799;-76
2022/04/05 01:41:51;;;;;;;10.35;0.80;;;6.50;99.90;;;;;;5112849;28;20045;-75
2022/04/05 01:44:17;;;;;;;8.70;1.00;;;6.50;99.90;;;;;;5132479;27;20039;-75
2022/04/05 01:46:42;;;;;;;8.02;0.77;;;6.50;99.90;;;;;;5099403;27;20074;-74
2022/04/05 01:49:10;;;;;;;6.47;0.70;;;6.50;99.90;;;;;;5132229;27;20046;-76
2022/04/05 01:51:37;;;;;;;9.40;0.90;;;6.40;99.90;;;;;;5133710;27;20055;-75
2022/04/05 01:54:07;;;;;;;4.90;0.65;;;6.40;99.90;;;;;;5113587;27;20047;-77
2022/04/05 01:56:48;;;;;;;5.10;0.73;;;6.30;99.90;;;;;;5099466;27;20162;-75
2022/04/05 01:59:16;;;;;;;10.63;0.70;;;6.40;99.90;;;;;;5133360;27;20055;-74
2022/04/05 02:01:43;;;;;;;11.50;0.70;;;6.30;99.90;;;;;;5134052;27;20046;-76
2022/04/05 02:04:09;;;;;;;11.93;1.42;;;6.40;99.90;;;;;;5131997;27;20039;-73
2022/04/05 02:06:36;;;;;;;6.35;0.73;;;6.40;99.90;;;;;;5115777;27;20097;-75
2022/04/05 02:09:03;;;;;;;7.35;0.60;;;6.40;99.90;;;;;;5130303;27;20059;-75
2022/04/05 02:11:28;;;;;;;3.95;0.60;;;6.30;99.90;;;;;;5134006;27;20072;-75
2022/04/05 02:13:54;;;;;;;7.82;0.90;;;6.30;99.90;;;;;;5115165;27;20043;-77
2022/04/05 02:16:20;;;;;;;10.70;0.70;;;6.30;99.90;;;;;;5140332;27;20468;-76
2022/04/05 02:18:46;;;;;;;7.03;0.90;;;6.30;99.90;;;;;;5123316;27;20093;-74
2022/04/05 02:21:13;;;;;;;5.85;0.85;;;6.30;99.90;;;;;;5080933;27;20035;-76
2022/04/05 02:23:41;;;;;;;6.25;0.80;;;6.30;99.90;;;;;;5118712;27;20038;-75
2022/04/05 02:26:07;;;;;;;8.02;0.70;;;6.30;99.90;;;;;;5133621;27;20047;-78
2022/04/05 02:28:32;;;;;;;8.57;0.80;;;6.30;99.90;;;;;;5153610;27;20043;-75
2022/04/05 02:30:59;;;;;;;9.27;0.77;;;6.30;99.90;;;;;;5135341;27;20050;-75
2022/04/05 02:33:25;;;;;;;7.63;0.90;;;6.30;99.90;;;;;;5137699;27;20058;-76
2022/04/05 02:35:51;;;;;;;7.88;0.85;;;6.30;99.90;;;;;;5153759;27;20042;-76
2022/04/05 02:38:23;;;;;;;9.05;0.90;;;6.30;99.90;;;;;;5134678;27;20050;-74
2022/04/05 02:40:49;;;;;;;8.65;1.05;;;6.30;99.90;;;;;;5133685;27;20061;-75
2022/04/05 02:43:15;;;;;;;7.60;1.10;;;6.30;99.90;;;;;;5101401;27;20046;-74
2022/04/05 02:45:41;;;;;;;13.05;1.17;;;6.30;99.90;;;;;;5118964;27;20046;-74
2022/04/05 02:48:06;;;;;;;8.98;1.27;;;6.30;99.90;;;;;;5117879;27;20129;-75
2022/04/05 02:50:32;;;;;;;8.07;0.88;;;6.30;99.90;;;;;;5134968;27;20042;-75
2022/04/05 02:52:58;;;;;;;10.80;1.20;;;6.30;99.90;;;;;;5153856;27;20107;-77
2022/04/05 02:55:24;;;;;;;10.77;1.00;;;6.20;99.90;;;;;;5100389;27;20057;-75
2022/04/05 02:57:50;;;;;;;12.98;1.20;;;6.20;99.90;;;;;;5136348;27;20070;-75
2022/04/05 03:00:17;;;;;;;16.20;2.47;;;6.20;99.90;;;;;;5119361;27;20126;-76
2022/04/05 03:02:44;;;;;;;8.05;1.10;;;6.20;99.90;;;;;;5135127;27;20159;-76
2022/04/05 03:05:10;;;;;;;8.93;1.20;;;6.20;99.90;;;;;;5134741;27;20482;-78
2022/04/05 03:07:37;;;;;;;9.68;1.33;;;6.20;99.90;;;;;;5118284;27;20160;-76
2022/04/05 03:10:07;;;;;;;6.47;0.93;;;6.20;99.90;;;;;;5134171;27;20043;-75
2022/04/05 03:12:35;;;;;;;7.78;0.93;;;6.20;99.90;;;;;;5152921;27;20058;-74
2022/04/05 03:15:02;;;;;;;8.88;1.20;;;6.20;99.90;;;;;;5153625;27;20046;-75
2022/04/05 03:17:28;;;;;;;8.02;1.23;;;6.30;99.90;;;;;;5134427;27;20142;-75
2022/04/05 03:19:55;;;;;;;13.98;1.25;;;6.20;99.90;;;;;;5118063;27;20131;-75
2022/04/05 03:22:21;;;;;;;;;;;6.20;99.90;;;;;;5116887;27;20111;-75
2022/04/05 03:24:47;;;;;;;10.82;1.35;;;6.20;99.90;;;;;;5132599;27;19919;-74
2022/04/05 03:27:13;;;;;;;10.07;1.20;;;6.30;99.90;;;;;;5133509;27;20042;-76
2022/04/05 03:29:39;;;;;;;8.38;1.15;;;6.20;99.90;;;;;;5117582;27;20145;-74
2022/04/05 03:32:06;;;;;;;6.18;1.00;;;6.20;99.90;;;;;;5134174;27;20133;-74
2022/04/05 03:34:32;;;;;;;10.10;1.10;;;6.20;99.90;;;;;;5134237;27;20070;-74
2022/04/05 03:36:58;;;;;;;10.25;1.75;;;6.20;99.90;;;;;;5153246;27;20445;-74
2022/04/05 03:39:24;;;;;;;6.28;0.98;;;6.30;99.90;;;;;;5132378;27;20467;-75
2022/04/05 03:41:52;;;;;;;6.43;1.13;;;6.30;99.90;;;;;;5153678;27;20046;-76
2022/04/05 03:44:18;;;;;;;10.20;1.20;;;6.30;99.90;;;;;;5117313;27;20115;-75
2022/04/05 03:46:44;;;;;;;6.75;1.10;;;6.30;99.90;;;;;;5118244;27;20046;-74
2022/04/05 03:49:09;;;;;;;9.15;1.38;;;6.30;99.90;;;;;;5123597;27;20094;-76
2022/04/05 03:51:35;;;;;;;9.90;2.42;;;6.30;99.90;;;;;;5113539;28;20097;-75
2022/04/05 03:54:01;;;;;;;7.93;1.50;;;6.40;99.90;;;;;;5095709;28;20443;-75
2022/04/05 03:56:27;;;;;;;7.60;1.73;;;6.30;99.90;;;;;;5080159;28;20386;-75
2022/04/05 03:58:52;;;;;;;11.38;1.75;;;6.40;99.90;;;;;;5115120;27;20088;-75
2022/04/05 04:01:18;;;;;;;17.33;2.03;;;6.40;99.90;;;;;;5134077;27;20050;-74
2022/04/05 04:03:44;;;;;;;12.35;1.80;;;6.40;99.90;;;;;;5134196;27;20524;-76
2022/04/05 04:06:10;;;;;;;9.73;2.03;;;6.40;99.90;;;;;;5100261;27;20145;-75
2022/04/05 04:08:35;;;;;;;13.05;2.45;;;6.40;99.90;;;;;;5095952;28;20055;-74
2022/04/05 04:11:02;;;;;;;13.93;2.35;;;6.50;99.90;;;;;;5129770;28;20126;-74
2022/04/05 04:13:28;;;;;;;11.63;2.30;;;6.50;99.90;;;;;;5124067;27;20104;-75
2022/04/05 04:15:56;;;;;;;16.33;2.65;;;6.50;99.90;;;;;;5120671;27;20107;-74
2022/04/05 04:18:22;;;;;;;13.07;3.05;;;6.50;99.90;;;;;;5138654;27;20082;-77
2022/04/05 04:20:48;;;;;;;16.27;3.27;;;6.50;99.90;;;;;;5104821;27;20095;-75
2022/04/05 04:23:15;;;;;;;18.80;3.60;;;6.50;99.90;;;;;;5122376;27;20089;-75
2022/04/05 04:25:41;;;;;;;13.37;2.63;;;6.50;99.90;;;;;;5157245;27;20046;-75
2022/04/05 04:28:08;;;;;;;22.25;3.63;;;6.50;99.90;;;;;;5125850;27;20338;-75
2022/04/05 04:30:36;;;;;;;20.83;4.00;;;6.50;99.90;;;;;;5136777;27;20102;-75
2022/04/05 04:33:02;;;;;;;;;;;6.50;99.90;;;;;;5139437;27;20094;-73
2022/04/05 04:35:28;;;;;;;17.15;3.60;;;6.50;99.90;;;;;;5118850;27;19919;-75
2022/04/05 04:37:54;;;;;;;16.87;3.57;;;6.60;99.90;;;;;;5119253;27;20118;-76
2022/04/05 04:40:21;;;;;;;20.88;4.00;;;6.50;99.90;;;;;;5117586;27;20057;-77
2022/04/05 04:42:47;;;;;;;16.85;3.85;;;6.50;99.90;;;;;;5157491;27;20095;-73
2022/04/05 04:45:13;;;;;;;19.17;4.05;;;6.50;99.90;;;;;;5138978;27;20121;-73
2022/04/05 04:47:39;;;;;;;16.67;3.67;;;6.50;99.90;;;;;;5157051;27;20054;-75
2022/04/05 04:50:06;;;;;;;20.00;3.72;;;6.60;99.90;;;;;;5123172;27;20055;-74
2022/04/05 04:52:32;;;;;;;16.85;3.90;;;6.60;99.90;;;;;;5157098;27;20394;-75
2022/04/05 04:54:58;;;;;;;17.40;3.55;;;6.50;99.90;;;;;;5116416;27;20039;-73
2022/04/05 04:57:25;;;;;;;18.20;4.07;;;6.50;99.90;;;;;;5127675;27;20074;-74
2022/04/05 04:59:52;;;;;;;17.65;3.22;;;6.50;99.90;;;;;;5156862;27;20395;-74
2022/04/05 05:02:18;;;;;;;19.65;4.07;;;6.50;99.90;;;;;;5121008;27;20129;-74
2022/04/05 05:04:44;;;;;;;22.70;4.43;;;6.50;99.90;;;;;;5137096;27;20062;-74
2022/04/05 05:07:14;;;;;;;16.98;3.60;;;6.60;99.90;;;;;;5137608;27;20115;-75
2022/04/05 05:09:41;;;;;;;18.65;3.50;;;6.60;99.90;;;;;;5134272;27;20050;-74
2022/04/05 05:12:10;;;;;;;18.35;3.60;;;6.50;99.90;;;;;;5155874;27;20395;-76
2022/04/05 05:14:39;;;;;;;19.83;4.30;;;6.60;99.90;;;;;;5155110;27;20429;-75
2022/04/05 05:17:06;;;;;;;18.40;3.55;;;6.60;99.90;;;;;;5121142;27;20065;-76
2022/04/05 05:19:32;;;;;;;17.77;4.60;;;6.60;99.90;;;;;;5147820;27;20050;-77
2022/04/05 05:21:58;;;;;;;19.10;3.93;;;6.60;99.90;;;;;;5116180;27;20035;-76
2022/04/05 05:24:24;;;;;;;22.63;4.18;;;6.60;99.90;;;;;;5138651;27;20118;-78
2022/04/05 05:26:50;;;;;;;17.02;3.80;;;6.60;99.90;;;;;;5091959;27;20061;-74
2022/04/05 05:29:16;;;;;;;20.35;3.38;;;6.70;99.90;;;;;;5118431;27;20061;-74
2022/04/05 05:31:42;;;;;;;18.75;3.67;;;6.70;99.90;;;;;;5102004;27;20052;-74
2022/04/05 05:34:08;;;;;;;18.70;4.10;;;6.70;99.90;;;;;;5119138;27;20034;-74
2022/04/05 05:36:34;;;;;;;13.65;3.00;;;6.70;99.90;;;;;;5154783;27;20039;-74
2022/04/05 05:39:00;;;;;;;14.50;3.60;;;6.70;99.90;;;;;;5153434;27;20070;-74
2022/04/05 05:41:26;;;;;;;14.23;2.63;;;6.70;99.90;;;;;;5137026;27;20070;-77
2022/04/05 05:43:52;;;;;;;10.63;1.98;;;6.70;99.90;;;;;;5120447;27;20053;-74
2022/04/05 05:46:18;;;;;;;15.82;2.03;;;6.70;99.90;;;;;;5119618;27;20127;-74
2022/04/05 05:48:43;;;;;;;16.88;2.53;;;6.70;99.90;;;;;;5154437;27;20074;-74
2022/04/05 05:51:09;;;;;;;8.50;1.90;;;6.70;99.90;;;;;;5154664;27;20039;-75
2022/04/05 05:53:35;;;;;;;20.80;2.05;;;6.70;99.90;;;;;;5154200;27;20049;-73
2022/04/05 05:56:01;;;;;;;14.23;2.28;;;6.70;99.90;;;;;;5152369;27;20381;-76
2022/04/05 05:58:27;;;;;;;11.95;1.80;;;6.80;99.90;;;;;;5154847;27;20042;-77
2022/04/05 06:00:53;;;;;;;12.07;1.98;;;6.80;99.90;;;;;;5116350;27;20051;-74
2022/04/05 06:03:20;;;;;;;14.70;2.35;;;6.80;99.90;;;;;;5115430;27;20125;-74
2022/04/05 06:05:47;;;;;;;15.40;1.90;;;6.80;99.90;;;;;;5133694;27;20058;-73
2022/04/05 06:08:14;;;;;;;5.22;1.23;;;6.80;99.90;;;;;;5122986;27;20115;-73
2022/04/05 06:10:40;;;;;;;8.53;1.57;;;6.80;99.90;;;;;;5101464;27;20486;-75
2022/04/05 06:13:06;;;;;;;12.73;1.67;;;6.80;99.90;;;;;;5141998;27;20042;-74
2022/04/05 06:15:32;;;;;;;16.75;2.83;;;6.80;99.90;;;;;;5156076;27;20038;-75
2022/04/05 06:17:58;;;;;;;8.93;1.20;;;6.80;99.90;;;;;;5120081;27;20103;-74
2022/04/05 06:20:24;;;;;;;13.23;1.63;;;6.80;99.90;;;;;;5153021;27;20046;-74
2022/04/05 06:22:52;;;;;;;10.57;1.20;;;6.80;99.90;;;;;;5136455;27;20058;-73
2022/04/05 06:25:20;;;;;;;11.80;1.42;;;6.80;99.90;;;;;;5118638;27;20129;-74
2022/04/05 06:27:47;;;;;;;6.70;0.80;;;6.80;99.90;;;;;;5118969;27;20049;-73
2022/04/05 06:30:14;;;;;;;9.32;0.80;;;6.80;99.90;;;;;;5135511;27;20142;-74
2022/04/05 06:32:40;;;;;;;5.28;0.60;;;6.80;99.90;;;;;;5118933;27;20050;-74
2022/04/05 06:35:08;;;;;;;7.90;0.80;;;6.80;99.90;;;;;;5153986;27;20045;-74
2022/04/05 06:37:36;;;;;;;5.10;0.60;;;6.80;99.90;;;;;;5134922;27;20053;-73
2022/04/05 06:40:07;;;;;;;6.70;0.70;;;6.80;99.90;;;;;;5134553;27;20046;-73
2022/04/05 06:42:33;;;;;;;6.18;0.73;;;6.80;99.90;;;;;;5118344;27;20043;-74
2022/04/05 06:44:59;;;;;;;5.88;0.70;;;6.90;99.90;;;;;;5153882;27;20455;-73
2022/04/05 06:47:25;;;;;;;4.70;0.43;;;7.00;99.90;;;;;;5118313;27;20089;-73
2022/04/05 06:49:51;;;;;;;2.28;0.40;;;7.00;99.90;;;;;;5131617;27;20043;-73
2022/04/05 06:52:16;;;;;;;3.25;0.47;;;7.10;99.90;;;;;;5098302;27;20134;-75
2022/04/05 06:54:42;;;;;;;6.20;0.50;;;7.20;99.90;;;;;;5115528;27;20046;-74
2022/04/05 06:57:09;;;;;;;3.65;0.30;;;7.30;99.90;;;;;;5136115;27;20042;-73
2022/04/05 06:59:35;;;;;;;4.65;0.40;;;7.30;99.90;;;;;;5117878;27;20125;-74
2022/04/05 07:02:01;;;;;;;3.38;0.40;;;7.40;99.90;;;;;;5118699;27;20046;-74
2022/04/05 07:04:29;;;;;;;4.05;0.40;;;7.50;99.90;;;;;;5118927;27;20042;-74
2022/04/05 07:06:56;;;;;;;3.10;0.30;;;7.50;99.90;;;;;;5135819;27;20122;-72
2022/04/05 07:09:22;;;;;;;;;;;7.60;99.90;;;;;;5117699;27;20081;-74
2022/04/05 07:11:48;;;;;;;2.43;0.40;;;7.50;99.90;;;;;;5153217;27;19970;-75
2022/04/05 07:14:16;;;;;;;3.33;0.40;;;7.50;99.90;;;;;;5135462;27;20051;-75
2022/04/05 07:16:46;;;;;;;4.90;0.40;;;7.50;99.90;;;;;;5154753;27;20103;-74
2022/04/05 07:19:12;;;;;;;1.38;0.30;;;7.40;99.90;;;;;;5119215;27;20154;-74
2022/04/05 07:21:38;;;;;;;4.13;0.40;;;7.40;99.90;;;;;;5118737;27;20046;-73
2022/04/05 07:24:04;;;;;;;3.80;0.40;;;7.50;99.90;;;;;;5116976;27;20061;-74
2022/04/05 07:26:29;;;;;;;4.13;0.40;;;7.50;99.90;;;;;;5135357;27;20157;-73
2022/04/05 07:28:55;;;;;;;3.97;0.50;;;7.60;99.90;;;;;;5132092;27;20096;-74
2022/04/05 07:31:21;;;;;;;4.78;0.90;;;7.50;99.90;;;;;;5114594;27;20047;-74
2022/04/05 07:33:46;;;;;;;2.75;0.43;;;7.50;99.90;;;;;;5132258;27;20039;-74
2022/04/05 07:36:12;;;;;;;4.07;0.50;;;7.60;99.90;;;;;;5132450;27;20072;-74
2022/04/05 07:38:38;;;;;;;4.90;0.68;;;7.60;99.90;;;;;;5110180;27;20398;-74
2022/04/05 07:41:04;;;;;;;5.05;0.60;;;7.70;99.90;;;;;;5133962;27;20042;-74
2022/04/05 07:43:30;;;;;;;5.22;0.95;;;7.70;99.90;;;;;;5153721;27;20061;-74
2022/04/05 07:45:56;;;;;;;6.85;0.80;;;7.80;99.90;;;;;;5135041;27;20038;-73
2022/04/05 07:48:28;;;;;;;5.88;1.10;;;7.90;99.90;;;;;;5153139;27;20057;-74
2022/04/05 07:50:55;;;;;;;9.80;2.08;;;7.90;99.90;;;;;;5134323;27;20066;-74
2022/04/05 07:53:22;;;;;;;;;;;8.00;99.90;;;;;;5101946;27;20046;-76
2022/04/05 07:55:48;;;;;;;5.32;0.77;;;8.00;99.90;;;;;;5153286;27;19919;-74
2022/04/05 07:58:13;;;;;;;2.45;0.60;;;8.00;99.90;;;;;;5135683;27;20145;-72
2022/04/05 08:00:39;;;;;;;6.18;0.88;;;7.90;99.90;;;;;;5135060;27;20049;-74
2022/04/05 08:03:05;;;;;;;4.90;0.93;;;7.90;99.90;;;;;;5118544;27;20038;-72
2022/04/05 08:05:31;;;;;;;7.45;1.35;;;7.90;99.90;;;;;;5135723;27;20046;-72
2022/04/05 08:07:57;;;;;;;5.38;1.30;;;7.90;99.90;;;;;;5136802;27;20443;-73
2022/04/05 08:10:23;;;;;;;4.55;1.20;;;7.90;99.90;;;;;;5118770;27;20386;-74
2022/04/05 08:12:50;;;;;;;5.45;0.70;;;7.90;99.90;;;;;;5134340;27;20050;-73
2022/04/05 08:15:21;;;;;;;2.38;0.32;;;7.90;99.90;;;;;;5135003;27;20094;-74
2022/04/05 08:17:47;;;;;;;2.40;0.30;;;7.90;99.90;;;;;;5153350;27;20062;-74
2022/04/05 08:20:14;;;;;;;1.95;0.28;;;8.00;99.90;;;;;;5154326;27;20057;-74
2022/04/05 08:22:41;;;;;;;2.63;0.28;;;8.00;99.90;;;;;;5118774;27;20042;-73
2022/04/05 08:25:08;;;;;;;2.03;0.50;;;7.90;99.90;;;;;;5118764;27;20129;-73
2022/04/05 08:27:34;;;;;;;;;;;8.00;99.90;;;;;;5130396;28;20125;-75
2022/04/05 08:30:01;;;;;;;3.33;0.50;;;8.00;99.90;;;;;;5099761;27;19919;-74
2022/04/05 08:32:27;;;;;;;4.70;0.75;;;7.90;99.90;;;;;;5117528;27;20099;-73
2022/04/05 08:34:54;;;;;;;6.00;1.10;;;8.00;99.90;;;;;;5152644;27;20039;-74
2022/04/05 08:37:22;;;;;;;2.97;0.80;;;8.00;99.90;;;;;;5134585;27;20173;-75
2022/04/05 08:39:49;;;;;;;4.38;1.48;;;8.10;99.90;;;;;;5115391;27;20049;-75
2022/04/05 08:42:15;;;;;;;4.28;1.42;;;8.20;99.90;;;;;;5117823;27;20169;-74
2022/04/05 08:44:47;;;;;;;2.78;0.70;;;8.30;99.90;;;;;;5134205;27;20435;-74
2022/04/05 08:47:21;;;;;;;3.53;0.60;;;8.40;99.90;;;;;;5153056;27;20042;-74
2022/04/05 08:49:49;;;;;;;3.15;0.77;;;8.50;99.90;;;;;;5133831;27;20053;-73
2022/04/05 08:52:15;;;;;;;3.42;0.82;;;8.60;99.90;;;;;;5117067;27;20051;-73
2022/04/05 08:54:47;;;;;;;2.63;0.65;;;8.60;99.90;;;;;;5132684;27;20042;-75
2022/04/05 08:57:12;;;;;;;2.97;0.80;;;8.60;99.90;;;;;;5118677;27;20046;-76
2022/04/05 08:59:38;;;;;;;2.10;0.63;;;8.50;99.90;;;;;;5116913;27;20042;-74
2022/04/05 09:02:05;;;;;;;6.57;0.90;;;8.50;99.90;;;;;;5155999;27;20134;-76
2022/04/05 09:04:37;;;;;;;5.70;1.08;;;8.50;99.90;;;;;;5121105;27;20051;-74
2022/04/05 09:07:24;;;;;;;5.63;1.30;;;8.50;99.90;;;;;;5156264;27;20121;-75
2022/04/05 09:10:13;;;;;;;4.20;1.30;;;8.70;99.90;;;;;;5136812;27;20050;-74
2022/04/05 09:12:47;;;;;;;4.18;0.95;;;8.70;99.90;;;;;;5155860;27;20089;-74
2022/04/05 09:15:16;;;;;;;4.43;1.33;;;8.80;99.90;;;;;;5137162;27;20038;-73
2022/04/05 09:17:44;;;;;;;4.22;1.30;;;8.90;99.90;;;;;;5134255;27;20130;-75
2022/04/05 09:20:12;;;;;;;5.70;1.65;;;8.90;99.90;;;;;;5101461;27;20561;-76
2022/04/05 09:22:39;;;;;;;4.47;1.40;;;8.90;99.90;;;;;;5100367;27;20390;-73
2022/04/05 09:25:24;;;;;;;5.72;1.13;;;9.00;99.90;;;;;;5133783;27;20055;-74
2022/04/05 09:27:54;;;;;;;5.68;1.58;;;9.00;99.90;;;;;;5102898;27;20092;-76
2022/04/05 09:30:28;;;;;;;4.80;1.08;;;9.10;99.90;;;;;;5116571;27;20046;-76
2022/04/05 09:33:04;;;;;;;5.78;1.27;;;9.10;99.90;;;;;;5098967;27;20517;-74
2022/04/05 09:35:42;;;;;;;4.68;0.95;;;9.20;99.90;;;;;;5099333;27;20390;-75
2022/04/05 09:38:16;;;;;;;8.15;1.67;;;9.20;99.90;;;;;;5116631;27;20039;-74
2022/04/05 09:40:44;;;;;;;5.22;1.45;;;9.00;99.90;;;;;;5109134;27;20129;-73
2022/04/05 09:43:13;;;;;;;5.15;1.95;;;9.00;99.90;;;;;;5116048;27;20051;-75
2022/04/05 09:45:42;;;;;;;6.97;3.17;;;8.90;99.90;;;;;;5134787;27;20344;-73
2022/04/05 09:48:09;;;;;;;5.63;1.80;;;8.80;99.90;;;;;;5100760;27;20570;-74
2022/04/05 09:51:02;;;;;;;7.15;2.45;;;8.90;99.90;;;;;;5136847;27;20462;-74
2022/04/05 09:53:41;;;;;;;8.82;2.92;;;8.90;99.90;;;;;;5137209;27;20047;-74
2022/04/05 09:56:18;;;;;;;14.65;3.63;;;9.00;99.90;;;;;;5154022;27;20127;-74
2022/04/05 09:58:52;;;;;;;13.45;4.18;;;9.10;99.90;;;;;;5119793;27;20082;-73
2022/04/05 10:01:24;;;;;;;13.45;4.85;;;9.00;99.90;;;;;;5137648;27;20064;-73
2022/04/05 10:04:09;;;;;;;15.90;4.93;;;9.10;99.90;;;;;;5137152;27;20046;-75
2022/04/05 10:06:39;;;;;;;15.90;5.50;;;9.10;99.90;;;;;;5136868;27;20046;-73
2022/04/05 10:09:06;;;;;;;16.73;5.25;;;9.10;99.90;;;;;;5118238;27;20054;-75
2022/04/05 10:11:35;;;;;;;17.02;5.63;;;9.10;99.90;;;;;;5119624;27;20428;-73
2022/04/05 10:14:02;;;;;;;17.63;5.55;;;9.10;99.90;;;;;;5118581;27;20406;-75
2022/04/05 10:16:29;;;;;;;15.80;5.50;;;9.00;99.90;;;;;;5155530;27;20046;-75
2022/04/05 10:19:03;;;;;;;18.17;6.45;;;9.10;99.90;;;;;;5118729;27;20174;-74
2022/04/05 10:21:31;;;;;;;18.25;6.38;;;9.30;99.90;;;;;;5136770;27;20054;-73
2022/04/05 10:24:05;;;;;;;19.85;6.32;;;9.40;99.90;;;;;;5153141;27;20042;-77
2022/04/05 10:26:36;;;;;;;21.33;7.20;;;9.50;99.90;;;;;;5119391;27;20134;-72
2022/04/05 10:29:15;;;;;;;19.10;7.65;;;9.80;99.90;;;;;;5118725;27;20082;-74
2022/04/05 10:32:01;;;;;;;27.13;8.38;;;9.80;99.90;;;;;;5136850;27;20463;-72
2022/04/05 10:35:09;;;;;;;18.42;7.20;;;9.80;99.90;;;;;;5137474;27;20038;-74
2022/04/05 10:37:36;;;;;;;19.10;6.85;;;10.00;99.90;;;;;;5136167;27;20062;-74
2022/04/05 10:40:04;;;;;;;16.42;6.47;;;10.20;99.90;;;;;;5154414;27;20085;-74
2022/04/05 10:42:36;;;;;;;19.83;6.63;;;10.20;99.90;;;;;;5116438;27;20080;-74
2022/04/05 10:45:09;;;;;;;20.90;6.72;;;10.30;99.90;;;;;;5134431;27;20432;-73
2022/04/05 10:48:16;;;;;;;15.57;5.47;;;10.30;99.90;;;;;;5135178;27;20047;-73
2022/04/05 10:50:47;;;;;;;13.43;4.93;;;10.30;99.90;;;;;;5121015;27;20047;-73
2022/04/05 10:53:19;;;;;;;13.85;4.95;;;10.30;99.90;;;;;;5121328;27;20526;-73
2022/04/05 10:56:03;;;;;;;17.50;5.07;;;10.20;99.90;;;;;;5121027;27;20088;-75
2022/04/05 10:58:37;;;;;;;12.25;4.50;;;10.50;99.90;;;;;;5140467;27;20043;-73
2022/04/05 11:01:23;;;;;;;12.40;4.35;;;10.60;99.90;;;;;;5143047;27;20103;-73
2022/04/05 11:04:18;;;;;;;13.40;4.60;;;10.60;99.90;;;;;;5131139;27;20047;-75
2022/04/05 11:07:02;;;;;;;13.80;4.78;;;10.60;99.90;;;;;;5147368;27;20055;-73
2022/04/05 11:09:32;;;;;;;12.60;4.00;;;10.60;99.90;;;;;;5148461;27;20039;-73
2022/04/05 11:12:02;;;;;;;13.52;4.30;;;10.60;99.90;;;;;;5117897;27;20043;-77
2022/04/05 11:14:57;;;;;;;11.23;3.58;;;10.50;99.90;;;;;;5134409;27;20051;-74
2022/04/05 11:17:26;;;;;;;14.47;4.47;;;10.60;99.90;;;;;;5113259;27;20059;-73
2022/04/05 11:19:55;;;;;;;14.32;5.18;;;10.60;99.90;;;;;;5148708;27;20050;-74
2022/04/05 11:22:29;;;;;;;13.50;4.20;;;10.80;99.90;;;;;;5129828;27;20045;-74
2022/04/05 11:25:07;;;;;;;12.63;4.63;;;10.80;99.90;;;;;;5156785;27;20085;-74
2022/04/05 11:28:14;;;;;;;14.88;4.70;;;10.90;99.90;;;;;;5146977;27;20139;-73
2022/04/05 11:30:55;;;;;;;16.73;4.75;;;11.00;99.90;;;;;;5136284;27;20039;-72
2022/04/05 11:33:30;;;;;;;14.38;4.47;;;11.20;99.90;;;;;;5134917;27;20170;-73
2022/04/05 11:36:17;;;;;;;13.23;4.65;;;11.30;99.90;;;;;;5115587;27;20386;-72
2022/04/05 11:38:56;;;;;;;13.65;5.03;;;11.40;99.90;;;;;;5115195;27;20051;-74
2022/04/05 11:41:27;;;;;;;15.35;5.50;;;11.40;99.90;;;;;;5115176;27;20039;-72
2022/04/05 11:43:55;;;;;;;19.98;5.63;;;11.40;99.90;;;;;;5131795;27;20440;-75
2022/04/05 11:46:28;;;;;;;21.83;6.35;;;11.40;99.90;;;;;;5115132;27;20054;-72
2022/04/05 11:48:59;;;;;;;18.38;6.13;;;11.40;99.90;;;;;;5133224;27;20058;-75
2022/04/05 11:51:35;;;;;;;18.77;5.68;;;11.40;99.90;;;;;;5098377;28;20440;-74
2022/04/05 11:54:08;;;;;;;14.52;4.63;;;11.60;99.90;;;;;;5116561;28;20483;-75
2022/04/05 11:56:34;;;;;;;16.98;4.82;;;11.60;99.90;;;;;;5098587;28;20051;-74
2022/04/05 11:59:02;;;;;;;18.27;5.60;;;11.60;99.90;;;;;;5113907;27;20104;-77
2022/04/05 12:01:30;;;;;;;16.05;5.18;;;11.70;99.90;;;;;;5132679;28;20078;-74
2022/04/05 12:03:59;;;;;;;16.65;5.07;;;11.60;99.90;;;;;;5132218;28;20126;-75
2022/04/05 12:06:32;;;;;;;12.25;4.63;;;11.50;99.90;;;;;;5112054;28;20575;-74
2022/04/05 12:09:03;;;;;;;16.52;5.50;;;11.60;99.90;;;;;;5112865;28;20402;-74
2022/04/05 12:11:32;;;;;;;18.08;5.47;;;11.40;99.90;;;;;;5133094;28;20039;-74
2022/04/05 12:14:04;;;;;;;18.42;5.30;;;11.40;99.90;;;;;;5114598;28;20035;-74
2022/04/05 12:16:49;;;;;;;18.13;5.72;;;11.20;99.90;;;;;;5114166;28;20509;-74
2022/04/05 12:19:29;;;;;;;19.60;6.43;;;11.10;99.90;;;;;;5093331;28;20087;-74
2022/04/05 12:22:02;;;;;;;18.38;5.32;;;11.00;99.90;;;;;;5112071;28;20467;-75
2022/04/05 12:24:30;;;;;;;17.60;5.47;;;11.00;99.90;;;;;;5092579;28;20054;-74
2022/04/05 12:26:59;;;;;;;19.20;5.03;;;11.00;99.90;;;;;;5109880;28;20051;-75
2022/04/05 12:29:28;;;;;;;13.98;4.07;;;11.00;99.90;;;;;;5109601;28;20039;-73
2022/04/05 12:32:08;;;;;;;17.00;3.78;;;11.20;99.90;;;;;;5110766;28;20368;-73
2022/04/05 12:34:34;;;;;;;16.95;5.00;;;11.30;99.90;;;;;;5110481;28;20135;-73
2022/04/05 12:37:02;;;;;;;16.30;4.60;;;11.20;99.90;;;;;;5097652;28;20058;-73
2022/04/05 12:39:30;;;;;;;12.73;4.60;;;11.20;99.90;;;;;;5112465;28;20105;-74
2022/04/05 12:42:06;;;;;;;13.52;4.40;;;11.20;99.90;;;;;;5097269;28;20036;-74
2022/04/05 12:44:57;;;;;;;15.25;5.20;;;11.00;99.90;;;;;;5115259;28;20407;-73
2022/04/05 12:47:30;;;;;;;18.13;4.78;;;10.90;99.90;;;;;;5115706;28;20112;-73
2022/04/05 12:50:01;;;;;;;19.38;5.47;;;10.70;99.90;;;;;;5096630;28;20076;-74
2022/04/05 12:52:31;;;;;;;19.95;6.15;;;10.70;99.90;;;;;;5114046;28;20395;-74
2022/04/05 12:55:00;;;;;;;24.55;6.47;;;10.60;99.90;;;;;;5112892;28;20126;-73
2022/04/05 12:57:52;;;;;;;31.00;7.97;;;10.60;99.90;;;;;;5096408;28;20039;-73
2022/04/05 13:00:27;;;;;;;35.60;9.70;;;10.60;99.90;;;;;;5111650;28;20056;-73